createdAt,value
2019-01-03T06:32:53.327Z,-0.50
2019-01-03T06:45:58.014Z,-0.60
2019-01-03T06:49:03.385Z,-0.60
2019-01-03T06:51:55.595Z,-0.70
2019-01-03T06:55:03.146Z,-0.70
2019-01-03T06:57:50.624Z,-0.80
2019-01-03T07:01:13.444Z,-0.80
2019-01-03T07:24:39.688Z,-0.10
2019-01-03T07:27:42.397Z,-0.10
2019-01-03T07:35:05.743Z,0.00
2019-01-03T07:36:44.913Z,0.00
2019-01-03T07:39:32.319Z,0.00
2019-01-03T07:45:48.815Z,0.10
2019-01-03T07:48:37.244Z,0.20
2019-01-03T07:51:44.040Z,0.20
2019-01-03T08:03:36.990Z,0.30
2019-01-03T08:06:34.864Z,0.30
2019-01-03T08:09:23.791Z,0.40
2019-01-03T08:12:37.071Z,0.40
2019-01-03T08:18:53.090Z,0.50
2019-01-03T08:23:39.968Z,0.60
2019-01-03T08:31:23.216Z,0.60
2019-01-03T08:46:23.881Z,0.70
2019-01-03T08:49:22.005Z,0.70
2019-01-03T08:55:57.495Z,0.80
2019-01-03T08:58:49.015Z,0.80
2019-01-03T09:01:36.061Z,0.80
2019-01-03T09:04:35.114Z,0.90
2019-01-03T09:07:22.245Z,1.00
2019-01-03T09:10:14.385Z,1.10
2019-01-03T09:13:00.781Z,1.20
2019-01-03T09:15:49.419Z,1.30
2019-01-03T09:18:52.551Z,1.40
2019-01-03T09:21:59.598Z,1.50
2019-01-03T09:24:44.882Z,1.60
2019-01-03T09:27:36.140Z,1.70
2019-01-03T09:30:32.555Z,1.80
2019-01-03T09:33:35.552Z,1.80
2019-01-03T09:39:03.007Z,1.90
2019-01-03T09:41:46.014Z,2.00
2019-01-03T09:48:20.071Z,2.10
2019-01-03T09:50:46.261Z,2.10
2019-01-03T09:53:38.539Z,2.10
2019-01-03T09:56:11.080Z,2.20
2019-01-03T09:59:02.393Z,2.30
2019-01-03T10:01:32.035Z,2.30
2019-01-03T10:04:14.890Z,2.40
2019-01-03T10:06:49.223Z,2.50
2019-01-03T10:09:17.201Z,2.50
2019-01-03T10:12:05.791Z,2.40
2019-01-03T10:14:44.616Z,2.50
2019-01-03T10:17:11.731Z,2.50
2019-01-03T10:19:54.615Z,2.60
2019-01-03T10:22:24.231Z,2.70
2019-01-03T10:24:55.448Z,2.80
2019-01-03T10:28:10.926Z,2.80
2019-01-03T10:30:40.731Z,2.90
2019-01-03T10:36:01.671Z,3.00
2019-01-03T10:38:36.193Z,3.00
2019-01-03T10:41:11.143Z,3.20
2019-01-03T10:43:41.827Z,3.40
2019-01-03T10:47:01.961Z,3.40
2019-01-03T10:49:45.087Z,3.60
2019-01-03T10:52:15.319Z,3.70
2019-01-03T10:54:47.076Z,3.80
2019-01-03T11:00:43.289Z,4.00
2019-01-03T11:04:11.767Z,4.20
2019-01-03T11:14:19.916Z,5.00
2019-01-03T11:16:48.727Z,5.10
2019-01-03T11:19:30.030Z,5.10
2019-01-03T11:21:52.763Z,5.10
2019-01-03T11:24:22.255Z,5.20
2019-01-03T11:26:51.883Z,5.30
2019-01-03T11:29:21.592Z,5.20
2019-01-03T11:31:55.048Z,5.20
2019-01-03T11:34:24.589Z,5.20
2019-01-03T11:36:58.404Z,5.20
2019-01-03T11:39:31.998Z,5.10
2019-01-03T11:42:03.084Z,5.10
2019-01-03T11:44:34.006Z,5.20
2019-01-03T11:47:04.990Z,5.10
2019-01-03T11:49:34.501Z,5.00
2019-01-03T11:52:04.174Z,4.90
2019-01-03T11:54:35.739Z,4.80
2019-01-03T11:57:05.274Z,4.80
2019-01-03T11:59:36.120Z,4.90
2019-01-03T12:02:08.372Z,4.90
2019-01-03T12:04:37.999Z,4.90
2019-01-03T12:07:17.305Z,4.90
2019-01-03T12:10:21.164Z,5.10
2019-01-03T12:19:41.494Z,5.10
2019-01-03T12:22:36.803Z,5.00
2019-01-03T12:25:09.487Z,5.10
2019-01-03T12:28:04.160Z,5.10
2019-01-03T12:30:36.380Z,4.70
2019-01-03T12:33:05.842Z,4.80
2019-01-03T12:35:36.068Z,4.80
2019-01-03T12:38:12.400Z,5.00
2019-01-03T12:41:11.112Z,5.10
2019-01-03T12:44:17.910Z,5.00
2019-01-03T12:46:47.931Z,5.00
2019-01-03T12:49:23.874Z,4.60
2019-01-03T12:51:55.797Z,4.90
2019-01-03T12:54:34.196Z,5.20
2019-01-03T12:57:06.808Z,5.30
2019-01-03T12:59:36.549Z,5.30
2019-01-03T13:02:09.785Z,5.00
2019-01-03T13:04:48.404Z,5.10
2019-01-03T13:07:17.948Z,5.10
2019-01-03T13:09:48.030Z,5.10
2019-01-03T13:12:21.751Z,5.10
2019-01-03T13:14:51.465Z,5.20
2019-01-03T13:17:23.807Z,5.20
2019-01-03T13:19:53.357Z,5.30
2019-01-03T13:22:28.642Z,5.20
2019-01-03T13:25:05.069Z,5.00
2019-01-03T13:27:53.704Z,5.20
2019-01-03T13:30:24.134Z,5.30
2019-01-03T13:32:53.727Z,5.50
2019-01-03T13:36:13.328Z,5.40
2019-01-03T13:38:42.837Z,5.60
2019-01-03T13:41:17.257Z,5.60
2019-01-03T13:43:47.961Z,5.60
2019-01-03T13:46:17.455Z,5.70
2019-01-03T13:49:39.552Z,5.60
2019-01-03T13:51:23.931Z,5.60
2019-01-03T13:53:54.507Z,5.50
2019-01-03T13:56:50.963Z,5.60
2019-01-03T13:59:20.791Z,5.60
2019-01-03T14:01:53.443Z,5.60
2019-01-03T14:07:38.487Z,5.50
2019-01-03T14:10:45.264Z,5.50
2019-01-03T14:12:57.342Z,5.50
2019-01-03T14:15:32.326Z,5.50
2019-01-03T14:18:41.528Z,5.50
2019-01-03T14:21:20.503Z,5.50
2019-01-03T14:23:49.024Z,5.50
2019-01-03T14:26:23.383Z,5.40
2019-01-03T14:28:52.845Z,5.40
2019-01-03T14:31:24.968Z,5.30
2019-01-03T14:33:57.184Z,5.20
2019-01-03T14:36:26.723Z,5.20
2019-01-03T14:38:56.236Z,5.20
2019-01-03T14:41:26.010Z,5.00
2019-01-03T14:43:55.580Z,5.00
2019-01-03T14:46:25.285Z,5.00
2019-01-03T14:48:57.615Z,5.00
2019-01-03T14:52:13.432Z,5.00
2019-01-03T14:54:47.444Z,5.00
2019-01-03T14:57:16.787Z,5.00
2019-01-03T14:59:46.667Z,5.00
2019-01-03T15:02:18.818Z,5.00
2019-01-03T15:04:50.141Z,5.00
2019-01-03T15:07:22.520Z,4.90
2019-01-03T15:09:51.927Z,4.80
2019-01-03T15:12:21.720Z,4.50
2019-01-03T15:14:53.998Z,4.40
2019-01-03T15:17:23.757Z,4.30
2019-01-03T15:19:55.592Z,4.30
2019-01-03T15:22:26.423Z,4.50
2019-01-03T15:24:58.756Z,4.60
2019-01-03T15:27:28.252Z,4.60
2019-01-03T15:29:57.703Z,4.60
2019-01-03T15:32:27.138Z,4.60
2019-01-03T15:34:58.301Z,4.70
2019-01-03T15:40:56.408Z,4.60
2019-01-03T15:43:25.916Z,4.50
2019-01-03T15:46:42.022Z,4.50
2019-01-03T15:49:11.938Z,4.40
2019-01-03T15:51:41.591Z,4.40
2019-01-03T15:54:14.171Z,4.40
2019-01-03T15:56:43.661Z,4.40
2019-01-03T15:59:13.161Z,4.50
2019-01-03T16:02:42.341Z,4.50
2019-01-03T16:05:13.553Z,4.40
2019-01-03T16:08:13.370Z,4.40
2019-01-03T16:14:11.639Z,4.30
2019-01-03T16:19:57.885Z,4.50
2019-01-03T16:29:52.803Z,4.40
2019-01-03T16:32:23.475Z,4.40
2019-01-03T16:35:14.710Z,4.40
2019-01-03T16:37:44.016Z,4.50
2019-01-03T16:40:15.527Z,4.40
2019-01-03T16:42:45.461Z,4.40
2019-01-03T16:45:15.239Z,4.40
2019-01-03T16:47:47.945Z,4.40
2019-01-03T16:50:18.294Z,4.40
2019-01-03T16:52:48.212Z,4.30
2019-01-03T16:55:17.850Z,4.30
2019-01-03T16:57:47.521Z,4.30
2019-01-03T17:00:16.965Z,4.30
2019-01-03T17:02:47.781Z,4.30
2019-01-03T17:08:12.207Z,4.20
2019-01-03T17:11:17.805Z,4.20
2019-01-03T17:14:40.452Z,4.10
2019-01-03T17:17:10.083Z,4.10
2019-01-03T17:19:39.520Z,4.00
2019-01-03T17:22:15.365Z,4.00
2019-01-03T17:24:46.051Z,4.10
2019-01-03T17:27:18.396Z,4.00
2019-01-03T17:29:47.988Z,4.00
2019-01-03T17:32:17.504Z,4.10
2019-01-03T17:34:47.208Z,4.10
2019-01-03T17:37:16.639Z,4.10
2019-01-03T17:40:19.102Z,4.10
2019-01-03T17:42:48.964Z,4.10
2019-01-03T17:45:18.451Z,4.10
2019-01-03T17:47:47.999Z,4.10
2019-01-03T17:50:44.824Z,4.10
2019-01-03T17:53:14.357Z,4.10
2019-01-03T17:56:16.459Z,4.10
2019-01-03T17:58:45.916Z,4.00
2019-01-03T18:01:15.675Z,3.90
2019-01-03T18:04:10.394Z,3.90
2019-01-03T18:06:41.069Z,3.90
2019-01-03T18:12:07.047Z,3.90
2019-01-03T18:14:55.636Z,3.80
2019-01-03T18:17:25.382Z,3.80
2019-01-03T18:19:54.851Z,3.80
2019-01-03T18:22:24.596Z,3.80
2019-01-03T18:28:09.844Z,3.80
2019-01-03T18:30:39.333Z,3.80
2019-01-03T18:33:17.897Z,3.80
2019-01-03T18:36:42.428Z,3.80
2019-01-03T18:39:12.038Z,3.70
2019-01-03T18:42:01.755Z,3.70
2019-01-03T18:44:31.427Z,3.60
2019-01-03T18:47:03.655Z,3.70
2019-01-03T18:49:47.718Z,3.60
2019-01-03T19:12:12.050Z,3.70
2019-01-03T19:21:33.595Z,3.80
2019-01-03T19:24:14.340Z,3.90
2019-01-03T19:30:12.924Z,3.90
2019-01-03T19:32:42.465Z,4.10
2019-01-03T19:41:26.045Z,3.80
2019-01-03T19:43:55.657Z,3.80
2019-01-03T19:46:30.351Z,3.80
2019-01-03T19:49:01.938Z,3.90
2019-01-03T19:51:35.876Z,3.90
2019-01-03T19:54:07.665Z,3.70
2019-01-03T19:56:39.735Z,3.80
2019-01-03T19:59:09.952Z,3.80
2019-01-03T20:01:42.650Z,3.80
2019-01-03T20:04:12.342Z,3.80
2019-01-03T20:06:44.332Z,3.90
2019-01-03T20:09:13.978Z,4.00
2019-01-03T20:11:43.517Z,4.00
2019-01-03T20:14:15.387Z,4.10
2019-01-03T20:16:45.114Z,4.00
2019-01-03T20:19:14.631Z,4.00
2019-01-03T20:22:41.806Z,4.00
2019-01-03T20:25:24.909Z,4.00
2019-01-03T20:27:56.463Z,3.90
2019-01-03T20:31:20.615Z,3.90
2019-01-03T20:34:16.726Z,3.90
2019-01-03T20:36:52.007Z,3.90
2019-01-03T20:39:23.695Z,3.90
2019-01-03T20:41:55.176Z,4.00
2019-01-03T20:44:34.284Z,4.00
2019-01-03T20:47:09.068Z,4.00
2019-01-03T20:49:38.830Z,4.00
2019-01-03T20:52:08.635Z,4.00
2019-01-03T20:54:54.447Z,4.00
2019-01-03T21:00:58.122Z,3.90
2019-01-03T21:14:16.062Z,3.70
2019-01-03T21:16:48.965Z,3.60
2019-01-03T21:19:38.263Z,3.60
2019-01-03T21:22:46.986Z,3.60
2019-01-03T21:25:55.923Z,3.60
2019-01-03T21:28:29.782Z,3.60
2019-01-03T21:31:18.586Z,3.50
2019-01-03T21:42:11.670Z,3.30
2019-01-03T21:44:43.040Z,3.20
2019-01-03T21:47:14.648Z,3.20
2019-01-03T21:49:44.197Z,3.20
2019-01-03T21:52:13.857Z,3.20
2019-01-03T21:54:47.712Z,3.10
2019-01-03T21:57:21.280Z,3.00
2019-01-03T22:00:16.177Z,2.90
2019-01-03T22:03:10.544Z,2.80
2019-01-03T22:05:40.231Z,2.80
2019-01-03T22:08:23.212Z,3.00
2019-01-03T22:13:50.659Z,2.90
2019-01-03T22:16:20.505Z,2.90
2019-01-03T22:19:42.641Z,3.10
2019-01-03T22:21:49.949Z,3.10
2019-01-03T22:28:56.929Z,3.00
2019-01-03T22:30:17.109Z,3.00
2019-01-03T22:32:46.787Z,3.00
2019-01-03T22:36:13.027Z,3.10
2019-01-03T22:38:14.400Z,3.10
2019-01-03T22:40:43.886Z,3.10
2019-01-03T22:43:13.383Z,3.20
2019-01-03T22:45:44.016Z,3.20
2019-01-03T22:48:13.423Z,3.40
2019-01-03T22:51:13.237Z,3.40
2019-01-03T22:53:42.730Z,3.30
2019-01-03T22:56:12.215Z,3.30
2019-01-03T22:58:44.419Z,3.30
2019-01-03T23:01:19.654Z,3.40
2019-01-03T23:03:49.217Z,3.40
2019-01-03T23:06:39.337Z,3.40
2019-01-03T23:09:59.043Z,3.40
2019-01-03T23:12:29.579Z,3.30
2019-01-03T23:15:00.271Z,3.20
2019-01-03T23:17:39.735Z,3.20
2019-01-03T23:20:09.254Z,3.20
2019-01-03T23:22:39.080Z,3.30
2019-01-03T23:25:08.808Z,3.30
2019-01-03T23:27:51.178Z,3.40
